Texas City — WDD4983 — position and weather

sailwx.info

Track history (hours):
 
Tides and Currents Weather Stations Pressure Air Temp Water Temp Dewpoint Dewpoint Depression Visibility Wind Speed Wind Dir Waves Ship Positions

Texas City

Owner: Marathon Petroleum Company LP, Findlay, OH. More information available from US FCC via Universal Licensing System and Coast Guard Vessel Documentation Center.

Last reported at 2016-May-23 12:15 UTC. Time now 2016-May-24 08:04 UTC.
Position N 29°57' W 090°14'.

Length 28 m; draft 3 m.

Type: Tug. MMSI: 367135470.

Date/timePositionNaut miles runAvg speedWind from/ knotsBaromVisibWave heightAir tempDewpointWater temp
2016-May-23 12:15N 29°57' W 090°14'3 3.8
2016-May-23 11:33N 29°56' W 090°12'3 2.8
2016-May-23 10:33N 29°56' W 090°08'4 3.8
2016-May-23 09:33N 29°55' W 090°04'3 3.4
2016-May-23 08:33N 29°57' W 090°01'2 2.5
2016-May-23 07:33N 29°55' W 089°58'0 0.0
2016-May-23 06:33N 29°55' W 089°58'0 0.2
2016-May-23 05:33N 29°55' W 089°59'33 1.4
2016-May-22 06:29N 29°33' W 090°28'4 4.8
2016-May-22 05:33N 29°34' W 090°33'4 4.4
2016-May-22 04:33N 29°35' W 090°38'4 4.4
2016-May-22 03:33N 29°37' W 090°42'4 4.1
2016-May-22 02:33N 29°34' W 090°45'5 4.8
2016-May-22 01:33N 29°32' W 090°50'7 5.1
2016-May-22 00:07N 29°35' W 090°58'97 4.3
2016-May-21 01:33N 29°58' W 092°47'6 5.0
2016-May-21 00:25N 29°57' W 092°53'4 4.7
2016-May-20 23:31N 29°56' W 092°58'5 4.9
2016-May-20 22:33N 29°56' W 093°03'4 4.3
2016-May-20 21:33N 29°56' W 093°08'5 4.7
2016-May-20 20:33N 29°59' W 093°12'4 3.9
2016-May-20 19:33N 30°02' W 093°15'4 4.0
2016-May-20 18:33N 30°05' W 093°18'1 0.8
2016-May-20 17:33N 30°06' W 093°18'0 0.0
2016-May-20 16:33N 30°06' W 093°18'0 0.1
2016-May-20 15:33N 30°06' W 093°18'0 0.1
2016-May-20 14:33N 30°06' W 093°18'0 0.2
2016-May-20 13:33N 30°06' W 093°19'3 3.3
2016-May-20 12:33N 30°04' W 093°21'2 2.3
2016-May-20 11:33N 30°04' W 093°24'3 2.9
2016-May-20 10:33N 30°04' W 093°27'3 3.0
2016-May-20 09:33N 30°04' W 093°31'2 2.1
2016-May-20 08:33N 30°04' W 093°33'5 4.7
2016-May-20 07:33N 30°04' W 093°38'5 4.7
2016-May-20 06:33N 30°03' W 093°44'5 4.5
2016-May-20 05:33N 29°59' W 093°47'5 4.7
2016-May-20 04:31N 29°57' W 093°52'5 4.8
2016-May-20 03:29N 29°53' W 093°55'4 4.5
2016-May-20 02:30N 29°49' W 093°58'51 2.8
2016-May-19 08:33N 29°29' W 094°52'7 6.2
2016-May-19 07:27N 29°35' W 094°56'5 6.1
2016-May-19 06:33N 29°40' W 094°59'9 3.9
2016-May-19 04:19N 29°47' W 095°04'2 0.9
2016-May-19 02:22N 29°46' W 095°05'2 0.1
2016-May-18 09:12N 29°46' W 095°07'0 0.0
2016-May-18 07:33N 29°46' W 095°07'0 0.0
2016-May-18 06:33N 29°46' W 095°07'0 0.0
2016-May-18 05:26N 29°46' W 095°07'0 0.0
2016-May-18 04:27N 29°46' W 095°07'0 0.0
2016-May-18 03:22N 29°46' W 095°07'0 0.0
2016-May-18 02:28N 29°46' W 095°07'0 0.0
2016-May-18 00:31N 29°46' W 095°07'0 0.0
2016-May-17 23:28N 29°46' W 095°07'0 0.0
2016-May-17 22:33N 29°46' W 095°07'0 0.0
2016-May-17 21:32N 29°46' W 095°07'0 0.0
2016-May-17 20:33N 29°46' W 095°07'0 0.0
2016-May-17 19:27N 29°46' W 095°07'0 0.0
2016-May-17 18:28N 29°46' W 095°07'0 0.0
2016-May-17 17:20N 29°46' W 095°07'2 0.5
2016-May-17 12:22N 29°47' W 095°05'1 1.1
2016-May-17 11:31N 29°47' W 095°04'2 1.7
2016-May-17 10:25N 29°46' W 095°04'6 6.6
2016-May-17 09:33N 29°42' W 094°59'7 7.4
2016-May-17 08:33N 29°35' W 094°56'31 1.0
2016-May-16 02:32N 29°37' W 094°21'29 4.8
2016-May-15 20:30N 29°54' W 093°54'6 5.2
2016-May-15 19:18N 29°59' W 093°50'4 6.0
2016-May-15 18:33N 30°01' W 093°45'4 4.4
2016-May-15 17:33N 30°03' W 093°41'4 3.6
2016-May-15 16:33N 30°04' W 093°37'5 4.5
2016-May-15 15:33N 30°04' W 093°32'5 4.5
2016-May-15 14:33N 30°04' W 093°26'5 4.6
2016-May-15 13:33N 30°04' W 093°21'3 3.3
2016-May-15 12:33N 30°06' W 093°18'0 0.1
2016-May-15 11:33N 30°06' W 093°18'2 2.1
2016-May-15 10:33N 30°04' W 093°16'1 1.0
2016-May-15 09:33N 30°03' W 093°16'5 4.5
2016-May-15 08:33N 29°60' W 093°13'4 3.9
2016-May-15 07:33N 29°57' W 093°10'5 4.6
2016-May-15 06:33N 29°56' W 093°05'5 5.5
2016-May-15 05:33N 29°56' W 092°58'5 5.1
2016-May-15 04:33N 29°57' W 092°53'101 4.4
2016-May-14 05:33N 29°37' W 090°59'4 4.3
2016-May-14 04:33N 29°34' W 090°56'4 4.3
2016-May-14 03:32N 29°32' W 090°51'4 4.5
2016-May-14 02:33N 29°32' W 090°46'4 3.7
2016-May-14 01:33N 29°35' W 090°43'3 3.0
2016-May-14 00:33N 29°36' W 090°40'4 4.1
2016-May-13 23:33N 29°35' W 090°35'26 4.2
2016-May-13 17:28N 29°45' W 090°08'4 4.7
2016-May-13 16:34N 29°47' W 090°04'1 0.7
2016-May-13 15:32N 29°48' W 090°04'4 3.8
2016-May-13 14:33N 29°51' W 090°01'3 3.1
2016-May-13 13:33N 29°54' W 089°60'2 1.8
2016-May-13 12:33N 29°55' W 089°58'  
Track history (hours):
 
Tides and Currents Weather Stations Pressure Air Temp Water Temp Dewpoint Dewpoint Depression Visibility Wind Speed Wind Dir Waves Ship Positions

Texas City

Owner: Marathon Petroleum Company LP, Findlay, OH. More information available from US FCC via Universal Licensing System and Coast Guard Vessel Documentation Center.

Last reported at 2016-May-23 12:15 UTC. Time now 2016-May-24 08:04 UTC.
Position N 29°57' W 090°14'.

Length 28 m; draft 3 m.

Type: Tug. MMSI: 367135470.

Date/timePositionNaut miles runAvg speedWind from/ knotsBaromVisibWave heightAir tempDewpointWater temp
2016-May-23 12:15N 29°57' W 090°14'3 3.8
2016-May-23 11:33N 29°56' W 090°12'3 2.8
2016-May-23 10:33N 29°56' W 090°08'4 3.8
2016-May-23 09:33N 29°55' W 090°04'3 3.4
2016-May-23 08:33N 29°57' W 090°01'2 2.5
2016-May-23 07:33N 29°55' W 089°58'0 0.0
2016-May-23 06:33N 29°55' W 089°58'0 0.2
2016-May-23 05:33N 29°55' W 089°59'33 1.4
2016-May-22 06:29N 29°33' W 090°28'4 4.8
2016-May-22 05:33N 29°34' W 090°33'4 4.4
2016-May-22 04:33N 29°35' W 090°38'4 4.4
2016-May-22 03:33N 29°37' W 090°42'4 4.1
2016-May-22 02:33N 29°34' W 090°45'5 4.8
2016-May-22 01:33N 29°32' W 090°50'7 5.1
2016-May-22 00:07N 29°35' W 090°58'97 4.3
2016-May-21 01:33N 29°58' W 092°47'6 5.0
2016-May-21 00:25N 29°57' W 092°53'4 4.7
2016-May-20 23:31N 29°56' W 092°58'5 4.9
2016-May-20 22:33N 29°56' W 093°03'4 4.3
2016-May-20 21:33N 29°56' W 093°08'5 4.7
2016-May-20 20:33N 29°59' W 093°12'4 3.9
2016-May-20 19:33N 30°02' W 093°15'4 4.0
2016-May-20 18:33N 30°05' W 093°18'1 0.8
2016-May-20 17:33N 30°06' W 093°18'0 0.0
2016-May-20 16:33N 30°06' W 093°18'0 0.1
2016-May-20 15:33N 30°06' W 093°18'0 0.1
2016-May-20 14:33N 30°06' W 093°18'0 0.2
2016-May-20 13:33N 30°06' W 093°19'3 3.3
2016-May-20 12:33N 30°04' W 093°21'2 2.3
2016-May-20 11:33N 30°04' W 093°24'3 2.9
2016-May-20 10:33N 30°04' W 093°27'3 3.0
2016-May-20 09:33N 30°04' W 093°31'2 2.1
2016-May-20 08:33N 30°04' W 093°33'5 4.7
2016-May-20 07:33N 30°04' W 093°38'5 4.7
2016-May-20 06:33N 30°03' W 093°44'5 4.5
2016-May-20 05:33N 29°59' W 093°47'5 4.7
2016-May-20 04:31N 29°57' W 093°52'5 4.8
2016-May-20 03:29N 29°53' W 093°55'4 4.5
2016-May-20 02:30N 29°49' W 093°58'51 2.8
2016-May-19 08:33N 29°29' W 094°52'7 6.2
2016-May-19 07:27N 29°35' W 094°56'5 6.1
2016-May-19 06:33N 29°40' W 094°59'9 3.9
2016-May-19 04:19N 29°47' W 095°04'2 0.9
2016-May-19 02:22N 29°46' W 095°05'2 0.1
2016-May-18 09:12N 29°46' W 095°07'0 0.0
2016-May-18 07:33N 29°46' W 095°07'0 0.0
2016-May-18 06:33N 29°46' W 095°07'0 0.0
2016-May-18 05:26N 29°46' W 095°07'0 0.0
2016-May-18 04:27N 29°46' W 095°07'0 0.0
2016-May-18 03:22N 29°46' W 095°07'0 0.0
2016-May-18 02:28N 29°46' W 095°07'0 0.0
2016-May-18 00:31N 29°46' W 095°07'0 0.0
2016-May-17 23:28N 29°46' W 095°07'0 0.0
2016-May-17 22:33N 29°46' W 095°07'0 0.0
2016-May-17 21:32N 29°46' W 095°07'0 0.0
2016-May-17 20:33N 29°46' W 095°07'0 0.0
2016-May-17 19:27N 29°46' W 095°07'0 0.0
2016-May-17 18:28N 29°46' W 095°07'0 0.0
2016-May-17 17:20N 29°46' W 095°07'2 0.5
2016-May-17 12:22N 29°47' W 095°05'1 1.1
2016-May-17 11:31N 29°47' W 095°04'2 1.7
2016-May-17 10:25N 29°46' W 095°04'6 6.6
2016-May-17 09:33N 29°42' W 094°59'7 7.4
2016-May-17 08:33N 29°35' W 094°56'31 1.0
2016-May-16 02:32N 29°37' W 094°21'29 4.8
2016-May-15 20:30N 29°54' W 093°54'6 5.2
2016-May-15 19:18N 29°59' W 093°50'4 6.0
2016-May-15 18:33N 30°01' W 093°45'4 4.4
2016-May-15 17:33N 30°03' W 093°41'4 3.6
2016-May-15 16:33N 30°04' W 093°37'5 4.5
2016-May-15 15:33N 30°04' W 093°32'5 4.5
2016-May-15 14:33N 30°04' W 093°26'5 4.6
2016-May-15 13:33N 30°04' W 093°21'3 3.3
2016-May-15 12:33N 30°06' W 093°18'0 0.1
2016-May-15 11:33N 30°06' W 093°18'2 2.1
2016-May-15 10:33N 30°04' W 093°16'1 1.0
2016-May-15 09:33N 30°03' W 093°16'5 4.5
2016-May-15 08:33N 29°60' W 093°13'4 3.9
2016-May-15 07:33N 29°57' W 093°10'5 4.6
2016-May-15 06:33N 29°56' W 093°05'5 5.5
2016-May-15 05:33N 29°56' W 092°58'5 5.1
2016-May-15 04:33N 29°57' W 092°53'101 4.4
2016-May-14 05:33N 29°37' W 090°59'4 4.3
2016-May-14 04:33N 29°34' W 090°56'4 4.3
2016-May-14 03:32N 29°32' W 090°51'4 4.5
2016-May-14 02:33N 29°32' W 090°46'4 3.7
2016-May-14 01:33N 29°35' W 090°43'3 3.0
2016-May-14 00:33N 29°36' W 090°40'4 4.1
2016-May-13 23:33N 29°35' W 090°35'26 4.2
2016-May-13 17:28N 29°45' W 090°08'4 4.7
2016-May-13 16:34N 29°47' W 090°04'1 0.7
2016-May-13 15:32N 29°48' W 090°04'4 3.8
2016-May-13 14:33N 29°51' W 090°01'3 3.1
2016-May-13 13:33N 29°54' W 089°60'2 1.8
2016-May-13 12:33N 29°55' W 089°58'  

Dump ship's entire track history